createdAt,value
2023-10-02T00:00:00.748Z,62.04
2023-10-02T00:02:59.518Z,62.00
2023-10-02T00:05:57.403Z,62.21
2023-10-02T00:08:54.912Z,62.41
2023-10-02T00:11:53.849Z,62.51
2023-10-02T00:14:51.490Z,62.61
2023-10-02T00:17:50.005Z,62.67
2023-10-02T00:21:08.152Z,62.71
2023-10-02T00:24:08.143Z,62.65
2023-10-02T00:27:05.508Z,62.78
2023-10-02T00:30:03.752Z,62.89
2023-10-02T00:33:03.773Z,63.00
2023-10-02T00:36:01.700Z,63.07
2023-10-02T00:39:00.180Z,63.16
2023-10-02T00:42:18.127Z,63.22
2023-10-02T00:45:15.679Z,63.15
2023-10-02T00:48:27.816Z,63.14
2023-10-02T00:51:26.782Z,63.20
2023-10-02T00:54:28.833Z,63.27
2023-10-02T00:57:26.323Z,63.29
2023-10-02T01:00:32.454Z,63.38
2023-10-02T01:03:50.045Z,63.47
2023-10-02T01:07:06.949Z,63.54
2023-10-02T01:10:13.484Z,63.63
2023-10-02T01:13:11.477Z,63.65
2023-10-02T01:16:09.951Z,63.63
2023-10-02T01:19:07.839Z,63.61
2023-10-02T01:22:05.383Z,63.46
2023-10-02T01:25:15.661Z,63.53
2023-10-02T01:28:16.908Z,63.50
2023-10-02T01:31:32.966Z,63.49
2023-10-02T01:34:41.098Z,63.44
2023-10-02T01:37:39.015Z,63.60
2023-10-02T01:40:36.470Z,63.63
2023-10-02T01:43:34.711Z,63.55
2023-10-02T01:46:32.355Z,63.47
2023-10-02T01:49:30.733Z,63.66
2023-10-02T01:52:38.025Z,63.83
2023-10-02T01:55:43.867Z,63.95
2023-10-02T01:58:41.455Z,64.05
2023-10-02T02:01:48.527Z,64.19
2023-10-02T02:04:46.450Z,64.29
2023-10-02T02:07:44.345Z,64.40
2023-10-02T02:10:41.843Z,63.77
2023-10-02T02:13:45.731Z,63.97
2023-10-02T02:16:46.757Z,64.43
2023-10-02T02:19:50.267Z,64.62
2023-10-02T02:22:48.511Z,64.61
2023-10-02T02:25:46.287Z,64.71
2023-10-02T02:28:45.865Z,64.78
2023-10-02T02:31:43.713Z,65.10
2023-10-02T02:34:41.760Z,65.28
2023-10-02T02:37:43.296Z,65.51
2023-10-02T02:40:41.944Z,65.67
2023-10-02T02:43:40.087Z,65.76
2023-10-02T02:46:54.881Z,65.92
2023-10-02T02:49:53.133Z,66.05
2023-10-02T02:53:10.980Z,66.05
2023-10-02T02:56:19.394Z,66.35
2023-10-02T02:59:17.418Z,66.60
2023-10-02T03:02:23.584Z,66.81
2023-10-02T03:05:23.133Z,67.00
2023-10-02T03:08:20.853Z,67.20
2023-10-02T03:11:20.809Z,67.31
2023-10-02T03:14:21.323Z,67.44
2023-10-02T03:17:30.074Z,67.50
2023-10-02T03:20:28.143Z,67.72
2023-10-02T03:23:29.556Z,67.80
2023-10-02T03:26:38.811Z,67.92
2023-10-02T03:29:38.186Z,68.03
2023-10-02T03:32:46.449Z,68.09
2023-10-02T03:35:58.217Z,68.45
2023-10-02T03:38:58.552Z,68.68
2023-10-02T03:41:57.205Z,68.80
2023-10-02T03:44:57.499Z,68.96
2023-10-02T03:48:04.613Z,68.99
2023-10-02T03:51:03.111Z,69.24
2023-10-02T03:54:18.744Z,69.27
2023-10-02T03:57:37.057Z,69.41
2023-10-02T04:00:44.871Z,69.56
2023-10-02T04:04:03.741Z,69.59
2023-10-02T04:07:01.737Z,69.70
2023-10-02T04:10:00.302Z,69.73
2023-10-02T04:13:01.905Z,69.89
2023-10-02T04:16:14.057Z,70.03
2023-10-02T04:19:11.989Z,70.04
2023-10-02T04:22:17.527Z,70.02
2023-10-02T04:25:15.508Z,70.09
2023-10-02T04:28:13.526Z,70.50
2023-10-02T04:31:11.239Z,70.57
2023-10-02T04:34:25.971Z,70.81
2023-10-02T04:37:24.221Z,70.89
2023-10-02T04:40:24.631Z,71.04
2023-10-02T04:43:24.764Z,71.05
2023-10-02T04:46:26.500Z,71.10
2023-10-02T04:49:23.869Z,71.29
2023-10-02T04:52:36.269Z,71.51
2023-10-02T04:55:33.692Z,71.58
2023-10-02T04:58:31.929Z,71.65
2023-10-02T05:01:36.515Z,71.88
2023-10-02T05:04:34.075Z,72.06
2023-10-02T05:07:31.869Z,72.10
2023-10-02T05:10:29.333Z,72.27
2023-10-02T05:13:45.039Z,72.29
2023-10-02T05:16:47.131Z,72.47
2023-10-02T05:20:02.834Z,72.54
2023-10-02T05:23:01.087Z,72.51
2023-10-02T05:25:58.503Z,72.64
2023-10-02T05:28:56.812Z,72.63
2023-10-02T05:31:54.225Z,72.59
2023-10-02T05:35:17.842Z,72.76
2023-10-02T05:38:18.349Z,72.95
2023-10-02T05:41:16.673Z,73.05
2023-10-02T05:44:24.790Z,73.14
2023-10-02T05:47:25.683Z,73.19
2023-10-02T05:50:33.791Z,73.37
2023-10-02T05:53:36.415Z,73.59
2023-10-02T05:56:35.882Z,73.59
2023-10-02T05:59:44.952Z,73.56
2023-10-02T06:03:00.764Z,73.54
2023-10-02T06:06:16.470Z,73.43
2023-10-02T06:09:18.025Z,73.19
2023-10-02T06:12:15.422Z,72.95
2023-10-02T06:15:32.955Z,72.70
2023-10-02T06:18:30.370Z,72.57
2023-10-02T06:21:28.187Z,72.77
2023-10-02T06:24:29.744Z,72.09
2023-10-02T06:27:27.459Z,68.85
2023-10-02T06:30:25.162Z,66.89
2023-10-02T06:33:23.286Z,66.25
2023-10-02T06:36:21.240Z,65.89
2023-10-02T06:39:22.510Z,65.87
2023-10-02T06:42:20.927Z,65.89
2023-10-02T06:45:19.622Z,65.79
2023-10-02T06:48:21.895Z,65.69
2023-10-02T06:51:21.000Z,65.64
2023-10-02T06:54:19.098Z,65.59
2023-10-02T06:57:16.857Z,65.47
2023-10-02T07:00:20.542Z,65.35
2023-10-02T07:03:19.228Z,65.27
2023-10-02T07:06:19.874Z,65.17
2023-10-02T07:09:18.045Z,64.94
2023-10-02T07:12:19.617Z,64.91
2023-10-02T07:15:23.901Z,64.87
2023-10-02T07:18:21.653Z,64.83
2023-10-02T07:21:22.725Z,64.49
2023-10-02T07:24:30.215Z,64.35
2023-10-02T07:27:28.051Z,63.97
2023-10-02T07:30:29.285Z,63.69
2023-10-02T07:33:26.980Z,63.61
2023-10-02T07:36:28.692Z,63.71
2023-10-02T07:39:37.446Z,63.63
2023-10-02T07:42:35.190Z,63.58
2023-10-02T07:45:32.558Z,63.38
2023-10-02T07:48:32.268Z,62.81
2023-10-02T07:51:37.353Z,61.37
2023-10-02T07:54:46.115Z,58.87
2023-10-02T07:57:45.475Z,55.76
2023-10-02T08:00:43.552Z,50.59
2023-10-02T08:03:46.592Z,45.01
2023-10-02T08:06:48.533Z,41.32
2023-10-02T08:09:58.954Z,39.15
2023-10-02T08:13:06.518Z,35.35
2023-10-02T08:16:10.598Z,34.21
2023-10-02T08:19:11.731Z,32.50
2023-10-02T08:22:10.332Z,29.05
2023-10-02T08:25:14.601Z,27.67
2023-10-02T08:28:24.944Z,27.04
2023-10-02T08:31:28.857Z,25.22
2023-10-02T08:34:28.310Z,24.48
2023-10-02T08:37:27.118Z,22.83
2023-10-02T08:40:24.942Z,22.49
2023-10-02T08:43:24.218Z,22.68
2023-10-02T08:46:23.431Z,21.48
2023-10-02T08:49:23.360Z,20.69
2023-10-02T08:52:22.357Z,19.64
2023-10-02T08:55:34.852Z,19.68
2023-10-02T08:58:32.992Z,19.08
2023-10-02T09:01:30.689Z,19.27
2023-10-02T09:04:31.086Z,18.21
2023-10-02T09:07:46.983Z,18.40
2023-10-02T09:10:59.400Z,18.20
2023-10-02T09:14:02.877Z,18.10
2023-10-02T09:17:13.972Z,17.47
2023-10-02T09:20:13.030Z,17.71
2023-10-02T09:23:11.385Z,16.98
2023-10-02T09:26:19.407Z,16.36
2023-10-02T09:29:17.734Z,17.75
2023-10-02T09:32:23.075Z,16.58
2023-10-02T09:35:59.623Z,16.55
2023-10-02T09:38:44.704Z,15.89
2023-10-02T09:41:44.067Z,15.67
2023-10-02T09:44:42.279Z,15.62
2023-10-02T09:47:55.401Z,16.07
2023-10-02T09:50:57.672Z,15.72
2023-10-02T09:54:07.994Z,15.77
2023-10-02T09:57:13.334Z,15.67
2023-10-02T10:00:32.051Z,15.22
2023-10-02T10:03:32.385Z,15.30
2023-10-02T10:06:50.201Z,15.03
2023-10-02T10:09:53.501Z,14.59
2023-10-02T10:12:56.273Z,14.91
2023-10-02T10:15:57.834Z,14.58
2023-10-02T10:19:15.531Z,15.19
2023-10-02T10:22:13.122Z,14.84
2023-10-02T10:25:34.563Z,14.68
2023-10-02T10:28:32.712Z,15.09
2023-10-02T10:31:31.308Z,15.21
2023-10-02T10:34:32.165Z,14.80
2023-10-02T10:37:29.544Z,14.94
2023-10-02T10:40:41.000Z,15.09
2023-10-02T10:43:57.827Z,15.03
2023-10-02T10:46:57.436Z,15.10
2023-10-02T10:50:13.612Z,14.83
2023-10-02T10:53:30.540Z,15.09
2023-10-02T10:56:28.997Z,15.33
2023-10-02T10:59:34.096Z,15.73
2023-10-02T11:02:31.714Z,15.54
2023-10-02T11:05:35.241Z,15.51
2023-10-02T11:08:34.840Z,15.04
2023-10-02T11:11:49.892Z,15.01
2023-10-02T11:14:48.473Z,15.29
2023-10-02T11:17:47.127Z,15.06
2023-10-02T11:20:44.752Z,14.82
2023-10-02T11:23:45.529Z,14.78
2023-10-02T11:26:43.078Z,14.65
2023-10-02T11:29:43.782Z,15.05
2023-10-02T11:32:41.580Z,15.17
2023-10-02T11:35:43.374Z,15.15
2023-10-02T11:38:41.141Z,15.10
2023-10-02T11:41:38.813Z,15.12
2023-10-02T11:44:36.447Z,15.15
2023-10-02T11:47:33.868Z,15.33
2023-10-02T11:50:32.372Z,15.71
2023-10-02T11:53:29.853Z,15.39
2023-10-02T11:56:27.793Z,15.32
2023-10-02T11:59:25.293Z,15.40
2023-10-02T12:02:22.922Z,15.34
2023-10-02T12:05:20.890Z,15.46
2023-10-02T12:08:21.675Z,15.66
2023-10-02T12:11:19.828Z,15.83
2023-10-02T12:14:17.291Z,15.66
2023-10-02T12:17:16.345Z,15.69
2023-10-02T12:20:20.515Z,15.67
2023-10-02T12:23:18.883Z,15.78
2023-10-02T12:26:16.813Z,16.13
2023-10-02T12:29:14.456Z,16.31
2023-10-02T12:32:12.446Z,16.55
2023-10-02T12:35:10.346Z,16.85
2023-10-02T12:38:08.462Z,17.23
2023-10-02T12:41:06.399Z,17.61
2023-10-02T12:44:04.212Z,18.08
2023-10-02T12:47:03.655Z,18.49
2023-10-02T12:50:01.670Z,19.05
2023-10-02T12:52:59.086Z,19.31
2023-10-02T12:55:57.211Z,19.69
2023-10-02T12:58:55.831Z,20.33
2023-10-02T13:01:53.642Z,20.68
2023-10-02T13:04:51.080Z,20.98
2023-10-02T13:07:49.708Z,21.64
2023-10-02T13:10:47.088Z,22.25
2023-10-02T13:13:46.185Z,22.12
2023-10-02T13:16:43.883Z,22.31
2023-10-02T13:19:41.846Z,22.88
2023-10-02T13:22:39.238Z,23.03
2023-10-02T13:25:37.456Z,23.28
2023-10-02T13:28:35.651Z,23.59
2023-10-02T13:31:33.226Z,23.77
2023-10-02T13:34:32.601Z,23.94
2023-10-02T13:37:30.210Z,24.29
2023-10-02T13:40:33.380Z,24.58
2023-10-02T13:43:33.705Z,24.91
2023-10-02T13:46:31.212Z,24.80
2023-10-02T13:49:28.905Z,25.28
2023-10-02T13:52:26.988Z,25.47
2023-10-02T13:55:24.950Z,25.68
2023-10-02T13:58:23.896Z,25.96
2023-10-02T14:01:21.847Z,25.81
2023-10-02T14:04:20.385Z,26.09
2023-10-02T14:07:19.677Z,26.21
2023-10-02T14:10:17.756Z,26.50
2023-10-02T14:13:15.387Z,27.06
2023-10-02T14:16:13.356Z,27.64
2023-10-02T14:19:11.532Z,27.81
2023-10-02T14:22:09.417Z,28.23
2023-10-02T14:25:08.556Z,28.69
2023-10-02T14:28:09.797Z,28.45
2023-10-02T14:31:09.336Z,28.69
2023-10-02T14:34:08.365Z,29.11
2023-10-02T14:37:07.410Z,29.09
2023-10-02T14:40:10.858Z,29.39
2023-10-02T14:43:10.149Z,29.52
2023-10-02T14:46:08.550Z,29.69
2023-10-02T14:49:08.532Z,29.64
2023-10-02T14:52:06.520Z,30.22
2023-10-02T14:55:04.385Z,30.71
2023-10-02T14:58:02.444Z,30.30
2023-10-02T15:00:59.844Z,30.75
2023-10-02T15:03:57.743Z,30.63
2023-10-02T15:06:55.339Z,31.11
2023-10-02T15:09:52.920Z,31.00
2023-10-02T15:12:53.813Z,31.65
2023-10-02T15:15:52.287Z,31.99
2023-10-02T15:18:49.718Z,32.32
2023-10-02T15:21:47.714Z,32.73
2023-10-02T15:24:45.109Z,32.68
2023-10-02T15:27:43.941Z,33.21
2023-10-02T15:30:41.478Z,33.76
2023-10-02T15:33:39.244Z,34.06
2023-10-02T15:36:40.176Z,34.16
2023-10-02T15:39:37.597Z,34.56
2023-10-02T15:42:35.246Z,34.80
2023-10-02T15:45:33.159Z,35.13
2023-10-02T15:48:30.822Z,35.55
2023-10-02T15:51:28.542Z,35.86
2023-10-02T15:54:26.806Z,36.21
2023-10-02T15:57:24.447Z,36.67
2023-10-02T16:00:23.158Z,36.92
2023-10-02T16:03:22.118Z,37.31
2023-10-02T16:06:19.880Z,37.75
2023-10-02T16:09:17.981Z,37.98
2023-10-02T16:12:16.017Z,38.25
2023-10-02T16:15:13.690Z,38.63
2023-10-02T16:18:11.885Z,38.88
2023-10-02T16:21:09.587Z,38.96
2023-10-02T16:24:07.027Z,39.49
2023-10-02T16:27:04.726Z,40.08
2023-10-02T16:30:02.863Z,40.30
2023-10-02T16:33:02.570Z,40.55
2023-10-02T16:36:00.966Z,40.86
2023-10-02T16:41:59.126Z,41.94
2023-10-02T16:44:56.757Z,42.46
2023-10-02T16:47:56.925Z,42.46
2023-10-02T16:50:55.371Z,43.07
2023-10-02T16:53:52.770Z,43.68
2023-10-02T16:56:50.407Z,44.13
2023-10-02T16:59:50.086Z,44.73
2023-10-02T17:02:47.759Z,44.99
2023-10-02T17:05:46.917Z,45.40
2023-10-02T17:08:44.392Z,45.58
2023-10-02T17:11:42.342Z,45.96
2023-10-02T17:14:40.403Z,45.63
2023-10-02T17:17:39.090Z,45.29
2023-10-02T17:20:37.407Z,45.68
2023-10-02T17:23:35.947Z,46.78
2023-10-02T17:26:36.905Z,47.24
2023-10-02T17:29:35.790Z,47.66
2023-10-02T17:32:35.131Z,48.28
2023-10-02T17:35:34.379Z,48.78
2023-10-02T17:38:33.502Z,48.92
2023-10-02T17:41:32.904Z,49.15
2023-10-02T17:44:32.652Z,49.73
2023-10-02T17:47:33.477Z,49.98
2023-10-02T17:50:33.471Z,50.09
2023-10-02T17:53:33.469Z,50.03
2023-10-02T17:56:33.223Z,50.51
2023-10-02T17:59:32.818Z,50.68
2023-10-02T18:02:34.251Z,51.26
2023-10-02T18:05:33.848Z,51.50
2023-10-02T18:08:33.716Z,51.91
2023-10-02T18:11:33.341Z,52.12
2023-10-02T18:14:33.178Z,52.70
2023-10-02T18:17:33.812Z,52.99
2023-10-02T18:20:36.243Z,53.08
2023-10-02T18:23:35.969Z,53.43
2023-10-02T18:26:38.807Z,53.01
2023-10-02T18:29:39.941Z,53.51
2023-10-02T18:32:40.743Z,53.86
2023-10-02T18:35:40.413Z,53.42
2023-10-02T18:38:40.429Z,53.96
2023-10-02T18:41:40.263Z,54.38
2023-10-02T18:44:45.670Z,54.51
2023-10-02T18:47:48.233Z,55.22
2023-10-02T18:50:47.852Z,55.40
2023-10-02T18:53:47.537Z,55.17
2023-10-02T18:56:47.210Z,55.71
2023-10-02T18:59:47.950Z,55.99
2023-10-02T19:02:50.294Z,56.26
2023-10-02T19:05:50.516Z,56.63
2023-10-02T19:08:50.730Z,56.64
2023-10-02T19:11:50.531Z,56.77
2023-10-02T19:14:51.094Z,57.49
2023-10-02T19:17:50.992Z,57.65
2023-10-02T19:20:51.840Z,58.10
2023-10-02T19:23:56.363Z,58.21
2023-10-02T19:26:57.115Z,58.63
2023-10-02T19:29:57.748Z,58.69
2023-10-02T19:33:00.771Z,58.53
2023-10-02T19:36:02.032Z,59.21
2023-10-02T19:39:02.176Z,59.61
2023-10-02T19:42:03.354Z,59.88
2023-10-02T19:45:03.343Z,59.87
2023-10-02T19:48:07.043Z,59.82
2023-10-02T19:51:07.388Z,60.12
2023-10-02T19:54:06.915Z,60.56
2023-10-02T19:57:07.322Z,60.87
2023-10-02T20:00:11.605Z,60.89
2023-10-02T20:03:11.454Z,61.19
2023-10-02T20:06:11.203Z,61.28
2023-10-02T20:09:11.132Z,61.46
2023-10-02T20:12:11.508Z,61.74
2023-10-02T20:15:11.809Z,61.95
2023-10-02T20:18:11.785Z,62.23
2023-10-02T20:21:11.530Z,62.15
2023-10-02T20:24:11.213Z,62.31
2023-10-02T20:27:10.504Z,62.69
2023-10-02T20:30:09.082Z,62.93
2023-10-02T20:33:07.885Z,63.01
2023-10-02T20:36:05.859Z,63.18
2023-10-02T20:39:04.470Z,63.48
2023-10-02T20:42:02.055Z,63.93
2023-10-02T20:44:59.894Z,64.18
2023-10-02T20:47:58.298Z,64.59
2023-10-02T20:50:56.182Z,64.90
2023-10-02T20:53:53.974Z,64.81
2023-10-02T20:56:51.403Z,64.98
2023-10-02T20:59:49.212Z,65.13
2023-10-02T21:02:46.710Z,65.35
2023-10-02T21:05:45.080Z,65.46
2023-10-02T21:08:42.846Z,65.49
2023-10-02T21:11:40.532Z,65.83
2023-10-02T21:14:38.426Z,65.74
2023-10-02T21:17:36.973Z,66.01
2023-10-02T21:20:34.528Z,66.13
2023-10-02T21:23:32.933Z,66.33
2023-10-02T21:26:30.429Z,66.49
2023-10-02T21:29:28.335Z,66.78
2023-10-02T21:32:25.826Z,67.03
2023-10-02T21:35:23.671Z,67.09
2023-10-02T21:38:23.867Z,67.39
2023-10-02T21:41:21.716Z,67.45
2023-10-02T21:44:19.185Z,67.60
2023-10-02T21:47:18.205Z,67.87
2023-10-02T21:50:15.734Z,67.92
2023-10-02T21:53:13.419Z,68.05
2023-10-02T21:56:17.134Z,68.18
2023-10-02T21:59:15.040Z,68.31
2023-10-02T22:02:12.639Z,68.49
2023-10-02T22:05:11.442Z,68.54
2023-10-02T22:08:08.935Z,68.71
2023-10-02T22:11:06.758Z,68.90
2023-10-02T22:14:07.335Z,68.99
2023-10-02T22:17:10.538Z,69.11
2023-10-02T22:20:09.113Z,69.21
2023-10-02T22:23:08.773Z,69.20
2023-10-02T22:26:06.462Z,69.47
2023-10-02T22:29:04.351Z,69.63
2023-10-02T22:32:01.855Z,69.66
2023-10-02T22:34:59.583Z,69.66
2023-10-02T22:38:00.470Z,69.79
2023-10-02T22:40:58.268Z,69.86
2023-10-02T22:43:55.679Z,70.02
2023-10-02T22:46:54.320Z,70.27
2023-10-02T22:49:52.032Z,70.31
2023-10-02T22:52:49.780Z,70.32
2023-10-02T22:55:49.038Z,70.62
2023-10-02T22:58:46.656Z,70.75
2023-10-02T23:01:44.058Z,70.89
2023-10-02T23:04:41.864Z,71.07
2023-10-02T23:07:39.269Z,71.26
2023-10-02T23:10:38.401Z,71.43
2023-10-02T23:13:36.184Z,71.60
2023-10-02T23:16:33.594Z,71.70
2023-10-02T23:19:31.356Z,71.81
2023-10-02T23:22:28.943Z,71.81
2023-10-02T23:25:28.360Z,71.93
2023-10-02T23:28:27.179Z,71.91
2023-10-02T23:31:25.626Z,71.98
2023-10-02T23:34:23.188Z,72.35
2023-10-02T23:37:21.037Z,72.65
2023-10-02T23:40:18.751Z,72.76
2023-10-02T23:43:20.838Z,72.85
2023-10-02T23:46:20.016Z,72.97
2023-10-02T23:49:17.430Z,73.16
2023-10-02T23:52:15.468Z,73.26
2023-10-02T23:55:15.880Z,73.33
2023-10-02T23:58:13.526Z,73.37
